Verkhotur'ye, Russia
Current Conditions -  °F | °C
As of 12:00 PM on Wednesday 22 Oct 2014 (Local Time) from USSS Reporting Station
Light Snow Light Snow  
Wind Chill:   Ceiling: 1600
Heat Index: 21°   Visibility: 2.3mi
Dew Point: 18°   Wind: 13mph
Humidity: 86%   Direction: 90°E
Pressure: 29.65"   Gusts: NA
Location:  58.87°N, 60.78°E
Report Text: USSS 220700Z 09006MPS 3800 -SN OVC016 M06/M08 Q1004 0845033658450540 NOSIG RMK QFE733
Loading
Personal Weather Stations






























Interactive Weather Map
Tropical Storm Tracking
New forecast layout! Learn more

10-Day Weather Forecast

Advertisements
Track Severe Weather on mobile